createdAt,value
2022-08-01T00:01:22.738Z,49.85
2022-08-01T00:04:11.427Z,50.04
2022-08-01T00:06:59.948Z,49.90
2022-08-01T00:09:48.440Z,50.25
2022-08-01T00:12:40.051Z,50.48
2022-08-01T00:15:29.953Z,51.00
2022-08-01T00:18:18.432Z,50.97
2022-08-01T00:21:07.062Z,51.19
2022-08-01T00:23:55.639Z,51.36
2022-08-01T00:26:44.197Z,51.72
2022-08-01T00:30:01.120Z,51.82
2022-08-01T00:32:44.471Z,51.85
2022-08-01T00:35:33.030Z,51.64
2022-08-01T00:38:23.179Z,51.97
2022-08-01T00:41:11.705Z,52.04
2022-08-01T00:44:00.274Z,52.28
2022-08-01T00:46:48.899Z,52.68
2022-08-01T00:49:38.901Z,52.73
2022-08-01T00:52:27.442Z,53.01
2022-08-01T00:55:16.044Z,53.27
2022-08-01T00:58:06.932Z,53.29
2022-08-01T01:00:55.577Z,53.87
2022-08-01T01:03:58.766Z,54.02
2022-08-01T01:06:56.893Z,54.09
2022-08-01T01:09:51.203Z,54.21
2022-08-01T01:12:49.986Z,54.20
2022-08-01T01:15:46.752Z,54.41
2022-08-01T01:18:39.928Z,54.33
2022-08-01T01:21:58.054Z,54.24
2022-08-01T01:25:00.387Z,54.30
2022-08-01T01:27:55.198Z,54.58
2022-08-01T01:30:47.156Z,54.57
2022-08-01T01:33:47.155Z,54.35
2022-08-01T01:36:36.646Z,55.03
2022-08-01T01:39:26.689Z,55.22
2022-08-01T01:42:17.132Z,55.38
2022-08-01T01:45:07.662Z,55.54
2022-08-01T01:47:58.587Z,55.68
2022-08-01T01:50:48.568Z,56.03
2022-08-01T01:53:38.017Z,56.24
2022-08-01T01:56:26.791Z,56.21
2022-08-01T01:59:15.349Z,56.31
2022-08-01T02:02:15.307Z,56.31
2022-08-01T02:05:06.587Z,56.30
2022-08-01T02:07:59.680Z,56.59
2022-08-01T02:11:02.588Z,56.95
2022-08-01T02:13:55.415Z,57.36
2022-08-01T02:16:46.545Z,57.67
2022-08-01T02:19:38.000Z,57.90
2022-08-01T02:22:32.762Z,58.40
2022-08-01T02:25:27.516Z,58.41
2022-08-01T02:28:23.932Z,58.82
2022-08-01T02:31:16.344Z,59.13
2022-08-01T02:34:08.380Z,59.39
2022-08-01T02:36:58.397Z,59.66
2022-08-01T02:39:48.676Z,59.62
2022-08-01T02:42:38.855Z,59.76
2022-08-01T02:45:28.343Z,59.16
2022-08-01T02:48:18.433Z,60.07
2022-08-01T02:51:08.577Z,60.26
2022-08-01T02:53:57.684Z,60.51
2022-08-01T02:56:48.997Z,61.03
2022-08-01T02:59:41.354Z,61.23
2022-08-01T03:02:31.240Z,61.47
2022-08-01T03:05:19.872Z,61.62
2022-08-01T03:08:12.070Z,62.10
2022-08-01T03:11:04.381Z,62.94
2022-08-01T03:13:55.464Z,63.50
2022-08-01T03:16:47.451Z,64.08
2022-08-01T03:19:36.260Z,65.00
2022-08-01T03:22:28.831Z,65.71
2022-08-01T03:25:18.122Z,65.99
2022-08-01T03:28:08.240Z,66.46
2022-08-01T03:31:00.706Z,66.78
2022-08-01T03:33:50.691Z,67.33
2022-08-01T03:36:45.110Z,67.83
2022-08-01T03:39:39.537Z,68.29
2022-08-01T03:42:34.784Z,68.90
2022-08-01T03:45:25.184Z,69.25
2022-08-01T03:48:18.483Z,69.71
2022-08-01T03:51:07.950Z,69.89
2022-08-01T03:53:57.531Z,70.12
2022-08-01T03:56:47.817Z,70.86
2022-08-01T03:59:38.009Z,71.37
2022-08-01T04:02:27.459Z,71.30
2022-08-01T04:05:18.049Z,71.63
2022-08-01T04:08:06.851Z,71.82
2022-08-01T04:10:55.413Z,72.27
2022-08-01T04:13:44.451Z,72.34
2022-08-01T04:16:33.119Z,72.41
2022-08-01T04:19:24.619Z,72.41
2022-08-01T04:22:16.482Z,72.95
2022-08-01T04:25:10.153Z,73.30
2022-08-01T04:28:01.362Z,73.56
2022-08-01T04:30:59.757Z,73.75
2022-08-01T04:33:52.013Z,73.79
2022-08-01T04:36:42.969Z,73.93
2022-08-01T04:39:34.109Z,74.09
2022-08-01T04:42:40.322Z,74.38
2022-08-01T04:45:29.164Z,74.62
2022-08-01T04:48:20.256Z,74.07
2022-08-01T04:51:16.172Z,74.03
2022-08-01T04:54:05.505Z,73.70
2022-08-01T04:56:56.581Z,72.61
2022-08-01T04:59:47.196Z,72.05
2022-08-01T05:02:35.873Z,71.48
2022-08-01T05:05:27.151Z,70.34
2022-08-01T05:08:17.296Z,69.69
2022-08-01T05:11:06.068Z,69.32
2022-08-01T05:13:55.953Z,67.94
2022-08-01T05:16:44.517Z,67.32
2022-08-01T05:19:35.222Z,67.23
2022-08-01T05:22:26.435Z,66.67
2022-08-01T05:25:19.956Z,66.21
2022-08-01T05:28:09.261Z,65.41
2022-08-01T05:30:59.195Z,65.47
2022-08-01T05:33:47.701Z,64.67
2022-08-01T05:36:38.506Z,64.38
2022-08-01T05:39:27.052Z,64.19
2022-08-01T05:42:15.559Z,63.98
2022-08-01T05:45:04.393Z,63.63
2022-08-01T05:47:54.265Z,63.14
2022-08-01T05:50:44.556Z,63.24
2022-08-01T05:53:35.450Z,63.28
2022-08-01T05:56:24.258Z,62.79
2022-08-01T05:59:12.784Z,62.74
2022-08-01T06:02:01.415Z,62.38
2022-08-01T06:04:51.375Z,62.26
2022-08-01T06:07:40.612Z,62.26
2022-08-01T06:10:29.240Z,62.24
2022-08-01T06:13:17.883Z,61.88
2022-08-01T06:16:06.869Z,61.54
2022-08-01T06:18:56.979Z,61.26
2022-08-01T06:21:47.013Z,61.69
2022-08-01T06:24:35.581Z,61.22
2022-08-01T06:27:26.980Z,61.51
2022-08-01T06:30:15.838Z,60.77
2022-08-01T06:33:05.686Z,60.08
2022-08-01T06:35:54.272Z,60.17
2022-08-01T06:38:44.104Z,59.46
2022-08-01T06:41:34.351Z,58.78
2022-08-01T06:44:25.652Z,57.95
2022-08-01T06:47:14.406Z,57.84
2022-08-01T06:50:03.015Z,57.22
2022-08-01T06:52:51.611Z,56.72
2022-08-01T06:55:44.491Z,56.81
2022-08-01T06:58:33.095Z,56.51
2022-08-01T07:01:21.722Z,56.56
2022-08-01T07:04:12.703Z,56.51
2022-08-01T07:07:01.284Z,55.44
2022-08-01T07:09:49.811Z,55.66
2022-08-01T07:12:42.042Z,55.30
2022-08-01T07:15:30.599Z,54.89
2022-08-01T07:18:19.157Z,54.53
2022-08-01T07:21:16.416Z,53.95
2022-08-01T07:24:16.404Z,54.05
2022-08-01T07:27:23.015Z,53.67
2022-08-01T07:30:15.182Z,53.76
2022-08-01T07:33:04.820Z,52.90
2022-08-01T07:35:53.344Z,52.70
2022-08-01T07:38:41.901Z,53.80
2022-08-01T07:41:53.095Z,53.63
2022-08-01T07:44:39.349Z,52.74
2022-08-01T07:47:32.575Z,52.05
2022-08-01T07:50:21.073Z,51.93
2022-08-01T07:53:11.222Z,51.34
2022-08-01T07:56:00.743Z,51.07
2022-08-01T07:58:49.293Z,51.06
2022-08-01T08:01:37.907Z,50.89
2022-08-01T08:04:28.258Z,49.93
2022-08-01T08:07:16.854Z,49.75
2022-08-01T08:10:06.712Z,48.88
2022-08-01T08:12:55.310Z,48.35
2022-08-01T08:15:44.329Z,48.10
2022-08-01T08:18:37.070Z,47.77
2022-08-01T08:21:28.536Z,48.64
2022-08-01T08:24:26.146Z,48.03
2022-08-01T08:27:16.189Z,48.09
2022-08-01T08:30:06.799Z,47.73
2022-08-01T08:32:55.304Z,47.29
2022-08-01T08:35:54.000Z,47.28
2022-08-01T08:38:44.254Z,47.19
2022-08-01T08:41:37.706Z,46.91
2022-08-01T08:44:26.854Z,46.69
2022-08-01T08:47:20.226Z,46.97
2022-08-01T08:50:09.584Z,46.58
2022-08-01T08:52:58.395Z,47.35
2022-08-01T08:55:55.343Z,46.23
2022-08-01T08:58:46.741Z,45.97
2022-08-01T09:01:36.194Z,46.12
2022-08-01T09:04:25.814Z,46.57
2022-08-01T09:07:15.282Z,47.08
2022-08-01T09:10:03.913Z,46.33
2022-08-01T09:13:08.543Z,45.20
2022-08-01T09:15:59.685Z,45.03
2022-08-01T09:18:53.536Z,44.87
2022-08-01T09:21:57.869Z,45.36
2022-08-01T09:25:00.115Z,43.90
2022-08-01T09:27:48.723Z,44.18
2022-08-01T09:30:41.525Z,43.60
2022-08-01T09:33:48.941Z,43.02
2022-08-01T09:36:54.361Z,43.45
2022-08-01T09:39:44.229Z,43.50
2022-08-01T09:42:32.780Z,43.07
2022-08-01T09:45:41.582Z,43.24
2022-08-01T09:48:34.173Z,43.27
2022-08-01T09:51:59.708Z,42.36
2022-08-01T09:54:39.376Z,43.48
2022-08-01T09:57:29.480Z,42.40
2022-08-01T10:00:43.810Z,43.00
2022-08-01T10:03:30.534Z,44.04
2022-08-01T10:06:25.401Z,43.65
2022-08-01T10:09:15.305Z,43.26
2022-08-01T10:12:05.315Z,43.52
2022-08-01T10:14:56.327Z,44.20
2022-08-01T10:17:50.632Z,44.67
2022-08-01T10:20:40.128Z,44.97
2022-08-01T10:23:40.030Z,45.67
2022-08-01T10:26:30.692Z,46.46
2022-08-01T10:29:46.730Z,47.00
2022-08-01T10:32:29.781Z,46.08
2022-08-01T10:35:46.018Z,46.25
2022-08-01T10:38:30.845Z,46.38
2022-08-01T10:41:20.878Z,46.40
2022-08-01T10:44:10.000Z,45.64
2022-08-01T10:47:02.027Z,45.85
2022-08-01T10:49:59.690Z,46.58
2022-08-01T10:53:15.241Z,46.66
2022-08-01T10:56:10.967Z,46.57
2022-08-01T10:59:06.171Z,46.95
2022-08-01T11:02:02.957Z,47.12
2022-08-01T11:04:57.199Z,46.45
2022-08-01T11:07:50.111Z,45.52
2022-08-01T11:10:40.387Z,44.80
2022-08-01T11:14:12.933Z,44.72
2022-08-01T11:17:37.455Z,42.86
2022-08-01T11:20:32.134Z,41.34
2022-08-01T11:23:23.348Z,40.63
2022-08-01T11:26:17.384Z,41.26
2022-08-01T11:29:29.954Z,41.85
2022-08-01T11:32:28.414Z,42.48
2022-08-01T11:35:19.248Z,42.33
2022-08-01T11:38:25.693Z,42.97
2022-08-01T11:41:15.795Z,42.39
2022-08-01T11:44:06.451Z,41.75
2022-08-01T11:47:09.754Z,42.34
2022-08-01T11:50:00.501Z,42.64
2022-08-01T11:52:59.422Z,42.30
2022-08-01T11:55:51.292Z,42.17
2022-08-01T11:58:40.360Z,42.47
2022-08-01T12:01:30.567Z,42.27
2022-08-01T12:04:19.435Z,42.46
2022-08-01T12:07:14.083Z,41.86
2022-08-01T12:10:06.113Z,42.86
2022-08-01T12:12:56.500Z,42.57
2022-08-01T12:15:47.105Z,41.78
2022-08-01T12:18:40.597Z,40.26
2022-08-01T12:21:29.116Z,41.14
2022-08-01T12:24:24.073Z,40.84
2022-08-01T12:27:26.132Z,40.54
2022-08-01T12:30:16.173Z,40.82
2022-08-01T12:33:05.925Z,40.77
2022-08-01T12:35:54.748Z,40.78
2022-08-01T12:38:43.347Z,40.35
2022-08-01T12:41:37.441Z,40.36
2022-08-01T12:44:27.517Z,39.63
2022-08-01T12:47:17.100Z,39.94
2022-08-01T12:50:07.955Z,39.76
2022-08-01T12:52:56.828Z,39.34
2022-08-01T12:55:58.020Z,39.43
2022-08-01T12:58:50.837Z,38.78
2022-08-01T13:01:43.049Z,38.25
2022-08-01T13:04:31.753Z,37.69
2022-08-01T13:07:20.398Z,37.91
2022-08-01T13:10:09.818Z,38.78
2022-08-01T13:13:00.821Z,39.52
2022-08-01T13:15:49.382Z,40.44
2022-08-01T13:18:53.422Z,40.51
2022-08-01T13:21:55.704Z,40.09
2022-08-01T13:24:44.305Z,40.38
2022-08-01T13:27:32.925Z,40.94
2022-08-01T13:30:23.952Z,40.64
2022-08-01T13:33:15.368Z,39.54
2022-08-01T13:36:08.100Z,39.65
2022-08-01T13:39:14.360Z,39.94
2022-08-01T13:42:02.944Z,39.32
2022-08-01T13:44:51.554Z,38.96
2022-08-01T13:47:40.146Z,37.97
2022-08-01T13:51:07.325Z,38.14
2022-08-01T13:53:58.451Z,37.58
2022-08-01T13:56:47.033Z,38.05
2022-08-01T13:59:35.636Z,38.45
2022-08-01T14:02:24.196Z,38.61
2022-08-01T14:05:12.840Z,38.98
2022-08-01T14:08:01.463Z,38.79
2022-08-01T14:10:52.946Z,39.81
2022-08-01T14:13:46.901Z,39.63
2022-08-01T14:16:35.552Z,39.71
2022-08-01T14:19:37.492Z,39.57
2022-08-01T14:22:27.498Z,39.46
2022-08-01T14:25:24.077Z,39.89
2022-08-01T14:28:28.316Z,39.16
2022-08-01T14:31:17.043Z,38.82
2022-08-01T14:34:05.554Z,37.61
2022-08-01T14:36:55.389Z,37.96
2022-08-01T14:39:53.470Z,37.68
2022-08-01T14:42:45.096Z,37.60
2022-08-01T14:45:35.144Z,37.63
2022-08-01T14:48:23.824Z,37.49
2022-08-01T14:51:12.494Z,36.84
2022-08-01T14:54:04.161Z,37.22
2022-08-01T14:56:54.014Z,37.82
2022-08-01T14:59:42.787Z,38.64
2022-08-01T15:02:32.776Z,38.90
2022-08-01T15:05:23.958Z,39.39
2022-08-01T15:08:14.716Z,39.47
2022-08-01T15:11:03.401Z,40.18
2022-08-01T15:14:12.135Z,40.40
2022-08-01T15:17:00.677Z,40.40
2022-08-01T15:19:52.508Z,40.20
2022-08-01T15:22:41.189Z,40.22
2022-08-01T15:25:41.346Z,41.05
2022-08-01T15:28:32.698Z,41.27
2022-08-01T15:31:21.272Z,41.35
2022-08-01T15:34:10.262Z,41.82
2022-08-01T15:37:00.514Z,42.36
2022-08-01T15:39:49.357Z,42.30
2022-08-01T15:42:38.169Z,42.49
2022-08-01T15:48:39.929Z,42.73
2022-08-01T15:51:28.871Z,43.56
2022-08-01T15:54:19.386Z,42.86
2022-08-01T15:57:10.738Z,43.19
2022-08-01T15:59:59.310Z,43.58
2022-08-01T16:02:48.318Z,43.86
2022-08-01T16:05:43.497Z,43.67
2022-08-01T16:08:32.784Z,44.33
2022-08-01T16:11:24.238Z,44.57
2022-08-01T16:14:13.449Z,44.25
2022-08-01T16:17:02.023Z,44.77
2022-08-01T16:19:51.658Z,44.30
2022-08-01T16:22:40.213Z,44.46
2022-08-01T16:25:28.818Z,44.86
2022-08-01T16:28:18.745Z,44.96
2022-08-01T16:31:17.006Z,44.63
2022-08-01T16:34:10.301Z,44.64
2022-08-01T16:37:02.557Z,44.67
2022-08-01T16:39:51.083Z,45.05
2022-08-01T16:42:39.708Z,44.46
2022-08-01T16:45:29.641Z,44.91
2022-08-01T16:48:18.486Z,44.61
2022-08-01T16:51:07.242Z,45.28
2022-08-01T16:53:55.897Z,44.96
2022-08-01T16:56:47.343Z,45.43
2022-08-01T16:59:41.186Z,45.13
2022-08-01T17:02:31.906Z,44.88
2022-08-01T17:05:21.193Z,45.10
2022-08-01T17:08:12.590Z,45.31
2022-08-01T17:11:01.573Z,45.27
2022-08-01T17:13:54.134Z,45.38
2022-08-01T17:16:42.808Z,45.75
2022-08-01T17:19:33.411Z,45.47
2022-08-01T17:22:22.093Z,45.59
2022-08-01T17:25:16.039Z,45.83
2022-08-01T17:28:06.684Z,45.16
2022-08-01T17:30:55.613Z,45.38
2022-08-01T17:33:46.028Z,45.31
2022-08-01T17:36:36.873Z,45.15
2022-08-01T17:39:38.455Z,46.41
2022-08-01T17:42:30.169Z,46.37
2022-08-01T17:45:28.173Z,46.21
2022-08-01T17:48:17.315Z,46.61
2022-08-01T17:51:06.423Z,47.12
2022-08-01T17:53:57.631Z,46.93
2022-08-01T17:56:46.432Z,47.31
2022-08-01T17:59:35.066Z,47.27
2022-08-01T18:02:23.936Z,46.71
2022-08-01T18:05:12.892Z,46.30
2022-08-01T18:08:04.369Z,46.61
2022-08-01T18:10:59.467Z,46.95
2022-08-01T18:13:50.881Z,46.99
2022-08-01T18:16:39.466Z,47.01
2022-08-01T18:19:28.038Z,47.33
2022-08-01T18:22:33.813Z,47.15
2022-08-01T18:25:23.237Z,47.17
2022-08-01T18:28:29.148Z,48.00
2022-08-01T18:31:21.169Z,47.93
2022-08-01T18:34:09.914Z,47.64
2022-08-01T18:36:58.737Z,47.60
2022-08-01T18:39:47.958Z,47.94
2022-08-01T18:42:36.521Z,48.21
2022-08-01T18:45:26.439Z,48.32
2022-08-01T18:48:14.952Z,48.31
2022-08-01T18:51:03.563Z,48.91
2022-08-01T18:53:57.838Z,48.70
2022-08-01T18:56:47.209Z,48.38
2022-08-01T18:59:35.824Z,48.49
2022-08-01T19:02:30.049Z,48.64
2022-08-01T19:05:18.641Z,48.82
2022-08-01T19:08:08.231Z,47.87
2022-08-01T19:10:59.857Z,48.18
2022-08-01T19:13:50.643Z,48.69
2022-08-01T19:16:39.237Z,48.60
2022-08-01T19:19:29.158Z,48.88
2022-08-01T19:22:18.600Z,48.66
2022-08-01T19:25:07.798Z,48.20
2022-08-01T19:27:57.598Z,48.32
2022-08-01T19:30:46.200Z,47.91
2022-08-01T19:33:42.976Z,47.76
2022-08-01T19:36:32.964Z,48.00
2022-08-01T19:39:23.746Z,48.12
2022-08-01T19:42:13.813Z,48.07
2022-08-01T19:45:07.746Z,48.34
2022-08-01T19:47:58.028Z,48.54
2022-08-01T19:50:47.721Z,48.41
2022-08-01T19:53:41.893Z,48.80
2022-08-01T19:56:33.482Z,49.02
2022-08-01T19:59:23.853Z,49.18
2022-08-01T20:02:16.796Z,49.21
2022-08-01T20:05:06.029Z,49.32
2022-08-01T20:07:55.023Z,49.25
2022-08-01T20:10:44.969Z,49.62
2022-08-01T20:13:36.705Z,49.48
2022-08-01T20:16:28.382Z,49.85
2022-08-01T20:19:18.274Z,49.83
2022-08-01T20:22:08.365Z,50.10
2022-08-01T20:25:00.011Z,50.36
2022-08-01T20:27:49.961Z,50.55
2022-08-01T20:30:38.995Z,50.64
2022-08-01T20:33:28.016Z,50.95
2022-08-01T20:36:25.213Z,50.97
2022-08-01T20:39:15.497Z,51.00
2022-08-01T20:42:05.005Z,50.97
2022-08-01T20:44:56.314Z,51.36
2022-08-01T20:47:45.212Z,51.86
2022-08-01T20:50:53.794Z,52.04
2022-08-01T20:53:44.623Z,52.31
2022-08-01T20:56:38.038Z,52.38
2022-08-01T20:59:55.058Z,52.80
2022-08-01T21:02:51.544Z,53.29
2022-08-01T21:05:55.906Z,53.56
2022-08-01T21:08:49.944Z,53.65
2022-08-01T21:11:41.348Z,53.96
2022-08-01T21:14:43.309Z,54.17
2022-08-01T21:17:40.144Z,54.61
2022-08-01T21:20:32.339Z,54.48
2022-08-01T21:23:23.183Z,54.76
2022-08-01T21:26:12.505Z,55.57
2022-08-01T21:29:02.444Z,55.92
2022-08-01T21:32:11.521Z,56.25
2022-08-01T21:35:00.234Z,56.41
2022-08-01T21:37:52.754Z,56.51
2022-08-01T21:40:44.848Z,56.75
2022-08-01T21:43:35.961Z,57.13
2022-08-01T21:46:26.744Z,57.50
2022-08-01T21:49:15.410Z,57.79
2022-08-01T21:52:08.438Z,57.92
2022-08-01T21:55:02.735Z,58.18
2022-08-01T21:57:59.119Z,58.52
2022-08-01T22:00:53.148Z,58.96
2022-08-01T22:03:46.329Z,59.25
2022-08-01T22:06:36.590Z,59.64
2022-08-01T22:09:25.226Z,59.82
2022-08-01T22:12:18.321Z,60.44
2022-08-01T22:15:08.891Z,60.74
2022-08-01T22:17:57.610Z,61.17
2022-08-01T22:20:48.222Z,61.54
2022-08-01T22:23:37.863Z,61.86
2022-08-01T22:26:29.321Z,62.21
2022-08-01T22:29:20.074Z,62.83
2022-08-01T22:32:08.961Z,63.13
2022-08-01T22:34:59.628Z,63.50
2022-08-01T22:37:56.515Z,63.59
2022-08-01T22:40:50.208Z,64.52
2022-08-01T22:43:41.209Z,64.84
2022-08-01T22:46:38.137Z,64.82
2022-08-01T22:49:32.164Z,65.26
2022-08-01T22:52:22.197Z,65.51
2022-08-01T22:55:11.997Z,66.00
2022-08-01T22:58:03.805Z,66.23
2022-08-01T23:00:56.845Z,66.66
2022-08-01T23:03:47.571Z,66.67
2022-08-01T23:06:40.271Z,67.24
2022-08-01T23:09:48.173Z,67.79
2022-08-01T23:12:37.885Z,68.68
2022-08-01T23:15:27.212Z,69.29
2022-08-01T23:18:19.879Z,69.60
2022-08-01T23:21:09.771Z,69.70
2022-08-01T23:24:00.015Z,69.92
2022-08-01T23:26:48.736Z,70.52
2022-08-01T23:29:37.357Z,70.75
2022-08-01T23:32:26.175Z,71.18
2022-08-01T23:35:14.712Z,71.67
2022-08-01T23:38:04.824Z,71.63
2022-08-01T23:40:53.491Z,71.99
2022-08-01T23:43:52.011Z,72.69
2022-08-01T23:46:41.010Z,72.73
2022-08-01T23:49:29.622Z,72.70
2022-08-01T23:52:20.489Z,73.18
2022-08-01T23:55:14.963Z,73.71
2022-08-01T23:58:04.031Z,74.15
